Pagrindinis puslapis
METAR-TAF:

METAR-TAF

Oro uostai :

Rafha, Saudo Arabija

platuma: 29-37N, ilguma: 043-29E, Aukštis: 449 m

Dabartinis oras

Ataskaita buvo paskelbta 45 minutes, ne 11:00 UTC
Vėjas 7 kt iš Pietų
Temperatūra 39°C
Drėgmė 12%
Slėgis 1016 hPa
Matomumas 10 km arba daugiau
Mažai debesys ne aukštis 4000 ft
Išsisklaidę debesys ne aukštis 10000 ft

METAR: OERF 141100Z 17007KT 9999 FEW040 SCT100 39/05 Q1016

Laikas: 14:45 (11:45 UTC)

Prognozė

Ataskaita buvo paskelbta 45 minutes, ne 11:00 UTC
Prognozė galioja nuo 14 metu 12 UTC su 15 metu 18 UTC
Vėjas 10 kt iš Rytų
Matomumas 10 km arba daugiau
Mažai debesys ne aukštis 4000 ft
Išsisklaidę debesys ne aukštis 8000 ft
Tapsmas
nuo 14 metu 19 UTC su 14 metu 21 UTC
Vėjas 3 kt nuo kintamojo kryptimis

TAF: OERF 141100Z 1412/1518 08010KT 9999 FEW040 SCT080 BECMG 1419/1421 VRB03KT

Orai ataskaitas ir orų prognozės (METAR, TAF).

turimą stotys yra geltonos ir raudonos taškus žemėlapyje.

Perkelti pele per norėdami pamatyti stoties vardą.

Tada spustelėkite, norėdami matyti oro stebėjimo ir prognozės.

Norėdami pakeisti žemėlapį: spustelėkite ant žalios mygtukų su juodo kryžiaus žemyn,; žalią mygtuką su brūkšneliu, jei norite nutolinti; arba žalių rodyklių gretimoms žemėlapius.


METAR-TAF: